Latest Weather Observations for Oakey

IDQ60901

Issued at 8:21 pm EST Friday 13 December 2019 (issued every 10 minutes, with the page automatically refreshed every 10 minutes)

About weather observations | Map of Brisbane area stations | Latest observations for Brisbane area | Other Formats
Station Details ID: 041359 Name: OAKEY AERO Lat: -27.40 Lon: 151.74 Height: 405.69 m
Data from the previous 72 hours. | See also: Recent months at Oakey
Date/Time
EST
Temp
°C
App
Temp
°C
Dew
Point
°C
Rel
Hum
%
Delta-T
°C
Wind Press
QNH
hPa
Press
MSL
hPa
Rain since
9am
mm
Dir  Spd
km/h
Gust
km/h
Spd
kts
Gust
kts
13/08:00pm 23.7 20.4 17.9 70 3.7 ENE 32 41 17 22 1011.4 1009.2 0.0
13/07:30pm 24.0 21.5 18.0 69 3.8 E 28 35 15 19 1010.9 1008.7 0.0
13/07:00pm 24.5 21.1 17.7 66 4.3 E 32 43 17 23 1010.6 1008.4 0.0
13/06:30pm 26.2 21.9 17.0 57 5.8 E 35 43 19 23 1010.5 1008.3 0.0
13/06:20pm 27.7 25.5 16.0 49 7.3 ESE 22 43 12 23 1010.0 1007.9 0.0
13/06:00pm 31.5 27.0 -0.2 13 15.6 WSW 13 15 7 8 1009.1 1006.9 0.0
13/05:30pm 32.2 26.5 -0.8 12 16.1 WSW 19 22 10 12 1008.9 1006.7 0.0
13/05:00pm 32.7 26.5 -0.4 12 16.3 WSW 22 32 12 17 1008.9 1006.7 0.0
13/04:30pm 33.2 26.3 0.0 12 16.5 W 26 39 14 21 1008.4 1006.2 0.0
13/04:02pm 34.5 27.2 -0.2 11 17.3 W 28 50 15 27 1008.2 1006.0 0.0
13/04:00pm 34.2 27.6 -0.4 11 17.2 W 24 50 13 27 1008.3 1006.1 0.0
13/03:30pm 34.6 28.0 -0.1 11 17.4 WSW 24 39 13 21 1008.7 1006.5 0.0
13/03:00pm 33.3 28.7 5.8 18 15.1 WNW 19 30 10 16 1008.7 1006.5 0.0
13/02:30pm 32.7 28.7 8.2 22 13.9 NW 19 26 10 14 1008.9 1006.7 0.0
13/02:00pm 32.5 28.1 6.7 20 14.3 W 19 26 10 14 1009.3 1007.1 0.0
13/01:30pm 32.6 28.4 7.4 21 14.1 W 19 28 10 15 1009.5 1007.3 0.0
13/01:00pm 33.2 29.4 9.9 24 13.6 WSW 20 30 11 16 1009.7 1007.5 0.0
13/12:30pm 33.1 30.9 13.2 30 12.2 SW 17 26 9 14 1010.1 1008.0 0.0
13/12:00pm 32.7 32.7 15.2 34 11.0 SE 9 20 5 11 1010.6 1008.4 0.0
13/11:30am 31.9 31.5 16.2 38 10.0 SE 13 22 7 12 1011.0 1008.8 0.0
13/11:00am 30.1 29.7 16.1 42 8.9 SSE 13 26 7 14 1011.4 1009.2 0.0
13/10:30am 29.1 28.3 16.0 45 8.2 SW 15 24 8 13 1011.7 1009.5 0.0
13/10:00am 30.6 31.5 16.6 43 8.9 ENE 7 11 4 6 1011.8 1009.6 0.0
13/09:30am 28.8 29.4 16.7 48 7.7 E 9 15 5 8 1011.6 1009.4 0.0
13/09:00am 27.9 28.8 16.5 50 7.2 SE 7 13 4 7 1012.0 1009.8 0.0
13/08:30am 26.5 27.4 16.7 55 6.2 E 7 13 4 7 1012.3 1010.2 0.0
13/08:00am 25.9 25.9 17.3 59 5.5 E 13 17 7 9 1012.2 1010.0 0.0
13/07:30am 25.1 24.9 17.6 63 4.8 E 15 19 8 10 1012.4 1010.3 0.0
13/07:00am 24.2 23.3 17.7 67 4.1 ENE 19 22 10 12 1012.0 1009.8 0.0
13/06:30am 23.2 21.5 17.2 69 3.8 ENE 22 26 12 14 1011.8 1009.6 0.0
13/06:00am 22.2 21.7 16.9 72 3.3 ENE 15 19 8 10 1011.8 1009.6 0.0
13/05:30am 21.0 21.1 16.6 76 2.7 E 11 13 6 7 1011.6 1009.4 0.0
13/05:00am 20.2 19.4 16.2 78 2.4 E 15 15 8 8 1011.2 1009.0 0.0
13/04:30am 20.3 19.9 16.1 77 2.6 ENE 13 13 7 7 1011.2 1009.0 0.0
13/04:00am 20.7 20.3 16.1 75 2.8 ENE 13 13 7 7 1011.0 1008.8 0.0
13/03:30am 21.1 21.0 16.1 73 3.1 ENE 11 13 6 7 1011.0 1008.8 0.0
13/03:00am 21.7 20.9 16.2 71 3.4 NE 15 19 8 10 1010.7 1008.5 0.0
13/02:30am 22.2 21.2 16.5 70 3.5 NE 17 20 9 11 1010.9 1008.7 0.0
13/02:00am 22.5 21.5 16.5 69 3.7 NE 17 20 9 11 1011.2 1009.0 0.0
13/01:30am 22.7 22.2 16.9 70 3.6 NE 15 17 8 9 1011.1 1008.9 0.0
13/01:00am 23.1 23.4 17.8 72 3.4 ENE 13 17 7 9 1011.4 1009.2 0.0
13/12:30am 23.5 23.2 18.2 72 3.4 NE 17 20 9 11 1011.6 1009.4 0.0
13/12:00am 23.8 24.4 18.7 73 3.3 ENE 13 19 7 10 1012.0 1009.8 0.0
 
Date/Time
EST
Temp
°C
App
Temp
°C
Dew
Point
°C
Rel
Hum
%
Delta-T
°C
Wind Press
QNH
hPa
Press
MSL
hPa
Rain since
9am
mm
Dir  Spd
km/h
Gust
km/h
Spd
kts
Gust
kts
12/11:30pm 24.3 24.1 18.5 70 3.7 NE 17 22 9 12 1012.0 1009.8 0.0
12/11:00pm 24.6 24.2 18.8 70 3.7 ENE 19 24 10 13 1012.1 1009.9 0.0
12/10:30pm 25.0 24.4 18.9 69 4.0 ENE 20 30 11 16 1012.4 1010.3 0.0
12/10:00pm 25.3 25.0 19.2 69 4.0 ENE 19 26 10 14 1012.0 1009.8 0.0
12/09:30pm 25.6 24.4 19.3 68 4.1 ENE 24 30 13 16 1011.6 1009.4 0.0
12/09:00pm 26.1 24.8 19.0 65 4.6 ENE 24 35 13 19 1011.4 1009.2 0.0
12/08:30pm 26.6 23.9 19.2 64 4.8 ENE 32 41 17 22 1010.8 1008.6 0.0
12/08:00pm 27.0 24.2 19.1 62 5.2 ENE 32 39 17 21 1010.1 1008.0 0.0
12/07:30pm 27.6 25.1 18.9 59 5.7 ENE 30 37 16 20 1009.8 1007.6 0.0
12/07:00pm 27.9 25.3 19.4 60 5.6 ENE 32 39 17 21 1009.2 1007.0 0.0
12/06:30pm 28.7 25.0 19.9 59 5.8 ENE 39 50 21 27 1009.0 1006.8 0.0
12/06:00pm 30.6 26.3 19.6 51 7.3 NE 41 50 22 27 1008.0 1005.8 0.0
12/05:30pm 33.1 28.3 15.6 35 11.1 NE 35 44 19 24 1007.2 1005.0 0.0
12/05:28pm 33.3 28.8 15.3 34 11.4 NE 33 44 18 24 1007.1 1004.9 0.0
12/05:00pm 34.8 29.8 14.1 28 12.9 ENE 33 44 18 24 1006.7 1004.5 0.0
12/04:45pm 36.2 34.1 13.6 25 14.1 E 17 43 9 23 1006.6 1004.4 0.0
12/04:30pm 36.6 34.3 7.6 17 16.6 W 9 13 5 7 1006.8 1004.6 0.0
12/04:00pm 37.7 33.3 6.6 15 17.6 WNW 19 28 10 15 1006.9 1004.7 0.0
12/03:30pm 36.9 33.5 7.8 17 16.7 NNW 15 20 8 11 1007.2 1005.0 0.0
12/03:00pm 37.5 35.1 10.0 19 16.4 NNW 13 28 7 15 1007.5 1005.3 0.0
12/02:30pm 37.1 34.6 9.6 19 16.2 W 13 33 7 18 1008.1 1005.9 0.0
12/02:00pm 35.8 33.6 10.8 22 15.0 NW 13 24 7 13 1008.4 1006.2 0.0
12/01:30pm 35.2 32.3 10.9 23 14.5 NNW 17 26 9 14 1008.8 1006.6 0.0
12/01:00pm 35.5 34.2 12.5 25 14.1 WSW 11 24 6 13 1009.3 1007.1 0.0
12/12:30pm 34.2 31.6 12.0 26 13.4 NW 17 28 9 15 1009.8 1007.6 0.0
12/12:00pm 33.9 32.1 13.4 29 12.6 SW 15 26 8 14 1010.5 1008.3 0.0
12/11:30am 32.9 31.3 14.0 32 11.7 WNW 15 28 8 15 1011.0 1008.8 0.0
12/11:00am 32.7 31.1 13.8 31 11.7 W 15 28 8 15 1011.6 1009.4 0.0
12/10:30am 30.9 28.7 13.2 34 10.7 W 17 26 9 14 1011.8 1009.6 0.0
12/10:00am 30.8 29.7 14.4 36 10.1 WNW 13 22 7 12 1011.9 1009.7 0.0
12/09:30am 29.7 27.6 14.7 40 9.3 WNW 19 33 10 18 1012.2 1010.0 0.0
12/09:00am 29.5 26.5 13.7 38 9.6 WNW 22 32 12 17 1012.2 1010.0 2.6
12/08:30am 28.7 27.1 14.9 43 8.5 W 17 28 9 15 1012.1 1009.9 2.6
12/08:00am 26.5 28.1 17.0 56 6.0 SSE 4 7 2 4 1012.0 1009.8 2.6
12/07:30am 24.3 24.8 16.6 62 4.8 NNW 9 13 5 7 1012.1 1009.9 2.6
12/07:00am 22.5 23.8 16.1 67 3.9 SSE 4 7 2 4 1012.0 1009.8 2.6
12/06:30am 20.9 21.6 16.1 74 2.9 ESE 7 9 4 5 1011.9 1009.7 2.6
12/06:04am 20.2 22.3 16.2 78 2.4 CALM 0 0 0 0 1011.7 1009.5 2.6
12/06:00am 19.7 21.9 16.5 82 2.0 CALM 0 0 0 0 1011.7 1009.5 2.6
12/05:39am 18.2 20.0 16.5 90 1.0 N 2 9 1 5 1011.6 1009.4 2.6
12/05:30am 17.9 18.6 16.2 90 1.0 ENE 7 11 4 6 1011.4 1009.2 2.6
12/05:00am 17.8 18.4 15.8 88 1.2 SE 7 11 4 6 1011.6 1009.4 2.6
12/04:30am 18.2 20.2 16.0 87 1.3 CALM 0 0 0 0 1011.7 1009.5 2.6
12/04:00am 18.5 20.6 16.3 87 1.3 CALM 0 2 0 1 1011.8 1009.6 2.6
12/03:30am 19.0 19.2 15.7 81 2.0 N 9 13 5 7 1012.2 1010.0 2.6
12/03:00am 19.7 18.8 15.8 78 2.4 NNW 15 19 8 10 1012.4 1010.3 2.6
12/02:30am 20.2 18.7 15.4 74 2.9 NNW 17 20 9 11 1012.6 1010.5 2.6
12/02:00am 20.3 18.9 15.5 74 2.9 NNW 17 20 9 11 1012.8 1010.7 2.6
12/01:30am 20.6 19.8 15.2 71 3.2 N 13 20 7 11 1013.0 1010.8 2.6
12/01:00am 20.7 20.2 14.8 69 3.5 NNE 11 15 6 8 1013.2 1011.0 2.6
12/12:30am 20.4 19.3 15.2 72 3.1 N 15 20 8 11 1013.6 1011.4 2.6
12/12:00am 20.6 17.1 15.4 72 3.1 E 28 39 15 21 1013.2 1011.0 2.6
 
Date/Time
EST
Temp
°C
App
Temp
°C
Dew
Point
°C
Rel
Hum
%
Delta-T
°C
Wind Press
QNH
hPa
Press
MSL
hPa
Rain since
9am
mm
Dir  Spd
km/h
Gust
km/h
Spd
kts
Gust
kts
11/11:34pm 21.5 16.1 15.1 67 3.9 ENE 37 56 20 30 1013.5 1011.3 2.6
11/11:30pm 21.3 15.1 14.9 67 3.8 E 41 56 22 30 1013.4 1011.2 2.6
11/11:00pm 21.5 14.9 15.3 68 3.8 E 44 59 24 32 1013.2 1011.0 2.6
11/10:31pm 21.3 14.7 16.3 73 3.1 ENE 46 65 25 35 1011.8 1009.6 2.6
11/10:30pm 21.4 14.8 16.4 73 3.1 ENE 46 61 25 33 1011.8 1009.6 2.6
11/10:10pm 20.8 15.9 17.4 81 2.1 E 39 50 21 27 1011.7 1009.5 2.6
11/10:00pm 21.0 17.0 16.8 77 2.6 ESE 33 39 18 21 1013.8 1011.6 2.6
11/09:30pm 20.3 15.3 17.1 82 2.0 SE 39 52 21 28 1014.4 1012.2 2.6
11/09:10pm 21.7 16.8 17.3 76 2.8 SE 39 57 21 31 1015.7 1013.5 2.4
11/09:05pm 22.9 19.4 17.4 71 3.5 SE 32 52 17 28 1015.6 1013.4 2.4
11/09:00pm 23.0 21.2 17.0 69 3.7 ESE 22 37 12 20 1015.8 1013.6 2.4
11/08:58pm 22.7 21.7 16.5 68 3.8 ESE 17 37 9 20 1015.7 1013.5 2.4
11/08:53pm 25.7 26.0 15.1 52 6.5 WNW 7 13 4 7 1015.2 1013.1 2.0
11/08:30pm 26.9 23.1 12.5 40 8.5 WSW 24 48 13 26 1014.5 1012.4 0.0
11/08:25pm 27.7 23.8 12.1 38 9.2 WSW 24 48 13 26 1014.4 1012.2 0.0
11/08:16pm 26.8 23.8 12.5 41 8.4 WNW 20 43 11 23 1014.2 1012.0 0.0
11/08:00pm 27.2 23.1 11.3 37 9.2 N 24 33 13 18 1012.5 1010.4 0.0
11/07:30pm 26.5 21.7 11.8 40 8.6 NNE 28 39 15 21 1011.0 1008.8 0.0
11/07:00pm 26.7 22.6 13.8 45 7.8 NNE 28 41 15 22 1011.4 1009.2 0.0
11/06:30pm 27.1 22.6 17.3 55 6.2 NE 37 46 20 25 1010.5 1008.3 0.0
11/06:17pm 26.1 22.1 17.7 60 5.4 NE 35 46 19 25 1010.6 1008.4 0.0
11/06:00pm 27.6 23.8 14.6 45 8.0 E 28 39 15 21 1012.1 1009.9 0.0
11/05:30pm 28.1 23.2 14.3 42 8.4 ENE 33 46 18 25 1010.7 1008.5 0.0
11/05:00pm 28.7 23.6 15.9 45 8.0 E 37 50 20 27 1010.8 1008.6 0.0
11/04:49pm 30.6 23.4 12.0 32 11.1 NE 41 54 22 29 1010.4 1008.2 0.0
11/04:30pm 31.6 24.3 11.4 29 12.0 NE 41 52 22 28 1009.1 1006.9 0.0
11/04:00pm 33.2 25.8 9.9 24 13.6 NE 39 50 21 27 1009.0 1006.8 0.0
11/03:30pm 36.7 34.5 12.2 23 15.0 NNW 15 41 8 22 1008.8 1006.6 0.0
11/03:00pm 37.2 34.9 10.5 20 16.0 S 13 24 7 13 1009.2 1007.0 0.0
11/02:30pm 38.4 35.3 11.5 20 16.4 WNW 19 28 10 15 1009.7 1007.5 0.0
11/02:00pm 37.5 36.5 12.2 22 15.5 WSW 9 20 5 11 1010.8 1008.6 0.0
11/01:30pm 36.6 35.0 11.4 22 15.2 WSW 11 20 6 11 1011.3 1009.1 0.0
11/01:00pm 36.4 34.6 13.2 25 14.4 WSW 15 20 8 11 1011.8 1009.6 0.0
11/12:30pm 36.5 35.5 13.3 25 14.4 WSW 11 17 6 9 1012.2 1010.0 0.0
11/12:00pm 35.2 34.7 13.9 27 13.3 NNW 9 20 5 11 1012.7 1010.6 0.0
11/11:30am 34.1 34.8 16.0 34 11.6 NW 7 17 4 9 1013.4 1011.2 0.0
11/11:00am 33.0 33.8 16.4 37 10.6 ENE 7 11 4 6 1014.1 1011.9 0.0
11/10:52am 32.5 33.5 16.8 39 10.1 SW 7 15 4 8 1014.2 1012.0 0.0
11/10:30am 32.5 33.5 16.8 39 10.1 NNW 7 13 4 7 1014.4 1012.2 0.0
11/10:00am 31.2 31.9 17.1 42 9.1 E 9 13 5 7 1014.9 1012.8 0.0
11/09:30am 30.2 30.8 17.6 46 8.1 E 11 17 6 9 1015.3 1013.2 0.0
11/09:00am 30.0 31.6 17.8 48 7.9 NW 6 13 3 7 1015.4 1013.3 1.0
11/08:30am 28.6 29.1 17.5 51 7.1 ENE 11 15 6 8 1015.6 1013.4 1.0
11/08:00am 27.4 27.5 18.4 58 5.8 ESE 15 17 8 9 1015.9 1013.7 1.0
11/07:30am 26.4 25.6 18.0 60 5.4 SE 19 24 10 13 1016.0 1013.8 1.0
11/07:00am 25.3 25.3 18.2 64 4.6 ESE 15 19 8 10 1015.9 1013.7 1.0
11/06:30am 23.9 24.6 18.8 73 3.3 E 13 15 7 8 1015.2 1013.1 1.0
11/06:00am 22.7 24.6 18.9 79 2.4 E 7 11 4 6 1014.9 1012.8 1.0
11/05:30am 21.4 23.3 19.0 86 1.5 NNE 7 9 4 5 1014.6 1012.5 1.0
11/05:00am 21.0 22.0 17.8 82 2.0 N 9 11 5 6 1014.1 1011.9 1.0
11/04:30am 21.5 22.9 17.7 79 2.4 N 7 11 4 6 1013.8 1011.6 1.0
11/04:00am 21.8 23.3 17.6 77 2.6 WNW 6 7 3 4 1013.3 1011.1 1.0
11/03:30am 21.5 22.9 17.7 79 2.4 N 7 13 4 7 1013.1 1010.9 1.0
11/03:00am 21.4 21.7 17.8 80 2.3 NNE 13 15 7 8 1013.1 1010.9 1.0
11/02:30am 22.4 22.7 18.0 76 2.8 N 13 19 7 10 1013.2 1011.0 1.0
11/02:00am 23.2 23.2 17.2 69 3.8 NNE 13 15 7 8 1013.8 1011.6 1.0
11/01:30am 23.7 23.3 17.2 67 4.1 NNE 15 17 8 9 1014.2 1012.0 1.0
11/01:00am 24.0 23.2 17.0 65 4.4 NE 17 20 9 11 1014.6 1012.5 1.0
11/12:30am 24.4 22.7 17.1 63 4.6 ENE 22 30 12 16 1015.0 1012.9 1.0
11/12:00am 24.6 22.5 17.1 63 4.7 ENE 24 32 13 17 1015.4 1013.3 1.0
 
Date/Time
EST
Temp
°C
App
Temp
°C
Dew
Point
°C
Rel
Hum
%
Delta-T
°C
Wind Press
QNH
hPa
Press
MSL
hPa
Rain since
9am
mm
Dir  Spd
km/h
Gust
km/h
Spd
kts
Gust
kts
10/11:30pm 24.4 22.1 15.6 58 5.4 E 22 26 12 14 1016.2 1014.0 1.0
10/11:00pm 24.6 22.3 14.1 52 6.3 ESE 19 26 10 14 1015.7 1013.5 1.0
10/10:30pm 24.1 22.0 14.8 56 5.6 NNE 19 20 10 11 1014.8 1012.7 1.0
10/10:00pm 24.6 22.4 15.0 55 5.8 NE 20 22 11 12 1015.1 1013.0 1.0
10/09:30pm 24.6 22.7 15.8 58 5.4 NNE 20 26 11 14 1015.1 1013.0 1.0
10/09:00pm 25.0 25.7 17.0 61 5.0 ENE 9 11 5 6 1015.7 1013.5 1.0
10/08:30pm 25.2 25.4 15.8 56 5.8 E 9 13 5 7 1015.3 1013.2 1.0

Latest Capital City Observations: Canberra | Sydney | Melbourne | Brisbane | Adelaide | Perth | Hobart | Darwin

Other formats

Comma delimited format used in spreadsheet applications
http://www.bom.gov.au/fwo/IDQ60901/IDQ60901.94552.axf

JavaScript Object Notation format (JSON) in row-major order
http://www.bom.gov.au/fwo/IDQ60901/IDQ60901.94552.json

Data quality

Most of these data are generated automatically and are frequently updated. Quality checks on data are not normally performed. It is possible for incorrect values to appear. Refer to information at About Latest Weather Observations and please check the disclaimer before using these data.